British Gannet — MGRX9 — position and weather

sailwx.info

Track history (hours):
 
Tides and Currents Weather Stations Pressure Air Temp Water Temp Dewpoint Dewpoint Depression Visibility Wind Speed Wind Dir Waves Ship Positions

British Gannet

Last reported at 2017-Oct-18 02:14 UTC. Time now 2017-Oct-20 16:22 UTC.
Position N 01°11' E 103°41'.

Length 252 m; draft 8.5 m.

Type: Tanker. MMSI: 232150000.

Date/timePositionNaut miles runAvg speedWind from/ knotsBaromVisibWave heightAir tempDewpointWater temp
2017-Oct-18 02:14N 01°11' E 103°41'6 2.9
2017-Oct-18 00:04N 01°11' E 103°47'1 4.4
2017-Oct-17 23:45N 01°12' E 103°49'1 3.3
2017-Oct-17 23:29N 01°12' E 103°48'2 3.2
2017-Oct-17 22:56N 01°14' E 103°47'0 1.0
2017-Oct-17 22:30N 01°14' E 103°47'18 2.9
2017-Oct-17 16:07N 01°14' E 103°28'214.0
2017-Oct-17 15:59N 01°13' E 103°30'712.3
2017-Oct-17 15:25N 01°12' E 103°37'3 7.2
2017-Oct-17 14:59N 01°11' E 103°40'1 2.9
2017-Oct-17 14:30N 01°11' E 103°41'3 6.6
2017-Oct-17 13:59N 01°09' E 103°44'511.2
2017-Oct-17 13:30N 01°12' E 103°49'3 2.2
2017-Oct-17 12:21N 01°14' E 103°47'0 0.0
2017-Oct-17 11:57N 01°14' E 103°47'0 0.0
2017-Oct-17 11:24N 01°14' E 103°47'0 0.0
2017-Oct-17 10:57N 01°14' E 103°47'0 0.0
2017-Oct-17 10:22N 01°14' E 103°47'0 0.0
2017-Oct-17 09:57N 01°14' E 103°47'0 0.0
2017-Oct-17 09:06N 01°14' E 103°47'0 0.0
2017-Oct-17 08:51N 01°14' E 103°47'0 0.0
2017-Oct-17 08:27N 01°14' E 103°47'0 0.0
2017-Oct-17 07:57N 01°14' E 103°47'0 0.0
2017-Oct-17 07:18N 01°14' E 103°47'0 0.0
2017-Oct-17 06:54N 01°14' E 103°47'0 0.0
2017-Oct-17 06:30N 01°14' E 103°47'0 0.0
2017-Oct-17 05:57N 01°14' E 103°47'0 0.0
2017-Oct-17 05:27N 01°14' E 103°47'0 0.0
2017-Oct-17 04:54N 01°14' E 103°47'0 0.0
2017-Oct-17 04:30N 01°14' E 103°47'0 0.0
2017-Oct-17 03:51N 01°14' E 103°47'0 0.0
2017-Oct-17 03:09N 01°14' E 103°47'0 0.0
2017-Oct-17 02:57N 01°14' E 103°47'0 0.0
2017-Oct-17 02:27N 01°14' E 103°47'0 0.0
2017-Oct-17 01:57N 01°14' E 103°47'0 0.0
2017-Oct-17 01:27N 01°14' E 103°47'0 0.0
2017-Oct-17 00:42N 01°14' E 103°47'0 0.0
2017-Oct-17 00:30N 01°14' E 103°47'0 0.0
2017-Oct-16 23:56N 01°14' E 103°47'0 0.0
2017-Oct-16 23:26N 01°14' E 103°47'0 0.0
2017-Oct-16 22:50N 01°14' E 103°47'0 0.0
2017-Oct-16 22:17N 01°14' E 103°47'0 0.0
2017-Oct-16 21:44N 01°14' E 103°47'0 0.0
2017-Oct-16 21:20N 01°14' E 103°47'0 0.0
2017-Oct-16 20:47N 01°14' E 103°47'0 0.0
2017-Oct-16 20:26N 01°14' E 103°47'0 0.0
2017-Oct-16 19:47N 01°14' E 103°47'0 0.0
2017-Oct-16 19:14N 01°14' E 103°47'0 0.0
2017-Oct-16 18:53N 01°14' E 103°47'0 0.0
2017-Oct-16 18:20N 01°14' E 103°47'0 0.0
2017-Oct-16 17:56N 01°14' E 103°47'0 0.0
2017-Oct-16 17:20N 01°14' E 103°47'0 0.0
2017-Oct-16 16:50N 01°14' E 103°47'0 0.0
2017-Oct-16 16:26N 01°14' E 103°47'0 0.0
2017-Oct-16 15:56N 01°14' E 103°47'0 0.0
2017-Oct-16 13:59N 01°14' E 103°47'0 0.0
2017-Oct-16 13:29N 01°14' E 103°47'0 0.0
2017-Oct-16 12:56N 01°14' E 103°47'0 0.0
2017-Oct-16 12:26N 01°14' E 103°47'0 0.0
2017-Oct-16 11:59N 01°14' E 103°47'0 0.0
2017-Oct-16 11:29N 01°14' E 103°47'0 0.0
2017-Oct-16 10:56N 01°14' E 103°47'0 0.0
2017-Oct-16 10:26N 01°14' E 103°47'0 0.0
2017-Oct-16 10:00N 01°14' E 103°47'0 0.0
2017-Oct-16 09:26N 01°14' E 103°47'0 0.0
2017-Oct-16 08:53N 01°14' E 103°47'0 0.1
2017-Oct-16 08:26N 01°14' E 103°47'0 0.1
2017-Oct-16 07:59N 01°14' E 103°47'0 0.0
2017-Oct-16 07:29N 01°14' E 103°47'0 0.0
2017-Oct-16 06:56N 01°14' E 103°47'0 0.0
2017-Oct-16 06:29N 01°14' E 103°47'0 0.0
2017-Oct-16 05:53N 01°14' E 103°47'0 0.0
2017-Oct-16 05:29N 01°14' E 103°47'0 0.0
2017-Oct-16 04:56N 01°14' E 103°47'0 0.0
2017-Oct-16 04:26N 01°14' E 103°47'0 0.0
2017-Oct-16 03:59N 01°14' E 103°47'0 0.0
2017-Oct-16 03:23N 01°14' E 103°47'0 0.0
2017-Oct-16 02:59N 01°14' E 103°47'0 0.0
2017-Oct-16 02:29N 01°14' E 103°47'0 0.0
2017-Oct-16 01:59N 01°14' E 103°47'0 0.0
2017-Oct-16 01:26N 01°14' E 103°47'0 0.0
2017-Oct-16 00:56N 01°14' E 103°47'0 0.0
2017-Oct-16 00:26N 01°14' E 103°47'0 0.0
2017-Oct-15 23:56N 01°14' E 103°47'0 0.0
2017-Oct-15 22:53N 01°14' E 103°47'0 0.0
2017-Oct-15 22:20N 01°14' E 103°47'0 0.0
2017-Oct-15 21:59N 01°14' E 103°47'0 0.0
2017-Oct-15 21:26N 01°14' E 103°47'0 0.0
2017-Oct-15 20:56N 01°14' E 103°47'0 0.0
2017-Oct-15 20:29N 01°14' E 103°47'0 0.0
2017-Oct-15 19:59N 01°14' E 103°47'0 0.0
2017-Oct-15 19:29N 01°14' E 103°47'0 0.0
2017-Oct-15 18:59N 01°14' E 103°47'0 0.0
2017-Oct-15 18:08N 01°14' E 103°47'0 0.0
2017-Oct-15 17:44N 01°14' E 103°47'0 0.0
2017-Oct-15 17:26N 01°14' E 103°47'0 0.0
2017-Oct-15 16:59N 01°14' E 103°47'0 0.0
2017-Oct-15 15:49N 01°14' E 103°47'0 0.0
2017-Oct-15 15:16N 01°14' E 103°47'0 0.0
2017-Oct-15 13:37N 01°14' E 103°47'0 0.0
2017-Oct-15 13:16N 01°14' E 103°47'0 0.0
2017-Oct-15 12:37N 01°14' E 103°47'0 0.0
2017-Oct-15 12:22N 01°14' E 103°47'0 0.0
2017-Oct-15 10:55N 01°14' E 103°47'0 0.0
2017-Oct-15 09:44N 01°14' E 103°47'0 0.0
2017-Oct-15 08:31N 01°14' E 103°47'0 0.0
2017-Oct-15 08:28N 01°14' E 103°47'0 0.1
2017-Oct-15 07:55N 01°14' E 103°47'0 0.1
2017-Oct-15 07:28N 01°14' E 103°47'0 0.0
2017-Oct-15 06:37N 01°14' E 103°47'0 0.0
2017-Oct-15 06:25N 01°14' E 103°47'0 0.0
2017-Oct-15 05:55N 01°14' E 103°47'0 0.0
2017-Oct-15 05:28N 01°14' E 103°47'0 0.0
2017-Oct-15 04:58N 01°14' E 103°47'0 0.0
2017-Oct-15 04:25N 01°14' E 103°47'0 0.0
2017-Oct-15 03:43N 01°14' E 103°47'0 0.0
2017-Oct-15 03:28N 01°14' E 103°47'0 0.0
2017-Oct-15 02:46N 01°14' E 103°47'0 0.0
2017-Oct-15 02:16N 01°14' E 103°47'0 0.0
2017-Oct-15 01:55N 01°14' E 103°47'0 0.0
2017-Oct-15 01:26N 01°14' E 103°47'0 0.0
2017-Oct-15 00:53N 01°14' E 103°47'0 0.0
2017-Oct-15 00:19N 01°14' E 103°47'0 0.0
2017-Oct-14 23:19N 01°14' E 103°47'0 0.0
2017-Oct-14 22:07N 01°14' E 103°47'0 0.0
2017-Oct-14 21:40N 01°14' E 103°47'0 0.0
2017-Oct-14 21:22N 01°14' E 103°47'0 0.0
2017-Oct-14 20:55N 01°14' E 103°47'0 0.0
2017-Oct-14 20:10N 01°14' E 103°47'0 0.0
2017-Oct-14 19:49N 01°14' E 103°47'0 0.0
2017-Oct-14 19:25N 01°14' E 103°47'0 0.0
2017-Oct-14 18:49N 01°14' E 103°47'0 0.2
2017-Oct-14 18:25N 01°14' E 103°47'0 0.1
2017-Oct-14 17:46N 01°14' E 103°47'0 0.0
2017-Oct-14 17:16N 01°14' E 103°47'0 0.0
2017-Oct-14 16:52N 01°14' E 103°47'0 0.0
2017-Oct-14 15:58N 01°14' E 103°47'0 0.0
2017-Oct-14 13:52N 01°14' E 103°47'0 0.0
2017-Oct-14 13:19N 01°14' E 103°47'0 0.0
2017-Oct-14 12:55N 01°14' E 103°47'0 0.0
2017-Oct-14 11:19N 01°14' E 103°47'0 0.0
2017-Oct-14 10:16N 01°14' E 103°47'0 0.0
2017-Oct-14 09:49N 01°14' E 103°47'0 0.0
2017-Oct-14 09:25N 01°14' E 103°47'0 0.1
2017-Oct-14 08:55N 01°14' E 103°47'0 0.0
2017-Oct-14 08:25N 01°14' E 103°47'0 0.1
2017-Oct-14 07:49N 01°14' E 103°47'0 0.2
2017-Oct-14 07:27N 01°14' E 103°47'0 0.3
2017-Oct-14 06:59N 01°14' E 103°47'0 0.4
2017-Oct-14 06:30N 01°14' E 103°47'0 0.5
2017-Oct-14 05:58N 01°14' E 103°47'0 0.5
2017-Oct-14 05:30N 01°14' E 103°47'1 1.1
2017-Oct-14 04:58N 01°14' E 103°46'1 1.2
2017-Oct-14 04:29N 01°15' E 103°46'1 1.5
2017-Oct-14 04:00N 01°15' E 103°45'1 1.7
2017-Oct-14 03:30N 01°15' E 103°44'3 3.6
2017-Oct-14 02:45N 01°14' E 103°47'0 0.0
2017-Oct-14 02:30N 01°14' E 103°47'0 0.0
2017-Oct-14 01:57N 01°14' E 103°47'0 0.0
2017-Oct-14 01:30N 01°14' E 103°47'0 0.0
2017-Oct-14 00:48N 01°14' E 103°47'0 0.0
2017-Oct-14 00:21N 01°14' E 103°47'0 0.0
2017-Oct-14 00:00N 01°14' E 103°47'0 0.0
2017-Oct-13 23:27N 01°14' E 103°47'0 0.0
2017-Oct-13 23:00N 01°14' E 103°47'0 0.0
2017-Oct-13 22:30N 01°14' E 103°47'0 0.0
2017-Oct-13 21:57N 01°14' E 103°47'0 0.0
2017-Oct-13 21:24N 01°14' E 103°47'0 0.0
2017-Oct-13 21:00N 01°14' E 103°47'0 0.0
2017-Oct-13 20:30N 01°14' E 103°47'0 0.0
2017-Oct-13 20:00N 01°14' E 103°47'0 0.0
2017-Oct-13 19:31N 01°14' E 103°47'0 0.5
2017-Oct-13 19:01N 01°14' E 103°47'2 4.3
2017-Oct-13 18:30N 01°15' E 103°45'5 9.1
2017-Oct-13 18:00N 01°13' E 103°41'1 1.7
2017-Oct-13 17:30N 01°12' E 103°41'0 0.2
2017-Oct-13 16:59N 01°12' E 103°41'0 0.1
2017-Oct-13 16:29N 01°12' E 103°41'0 0.1
2017-Oct-13 15:56N 01°12' E 103°41'0 0.0
2017-Oct-13 15:29N 01°12' E 103°41'0 0.1
2017-Oct-13 14:53N 01°12' E 103°41'0 0.0
2017-Oct-13 14:17N 01°12' E 103°41'0 0.0
2017-Oct-13 13:59N 01°12' E 103°41'0 0.0
2017-Oct-13 13:26N 01°12' E 103°41'0 0.0
2017-Oct-13 12:59N 01°12' E 103°41'0 0.1
2017-Oct-13 12:29N 01°12' E 103°41'0 0.1
2017-Oct-13 11:53N 01°12' E 103°41'0 0.0
2017-Oct-13 11:26N 01°12' E 103°41'0 0.0
2017-Oct-13 10:59N 01°12' E 103°41'0 0.2
2017-Oct-13 10:29N 01°12' E 103°41'1 1.8
2017-Oct-13 10:01N 01°12' E 103°41'3 5.4
2017-Oct-13 09:30N 01°12' E 103°38'3 5.2
2017-Oct-13 09:00N 01°12' E 103°35'2 4.9
2017-Oct-13 08:30N 01°10' E 103°33'2 4.2
2017-Oct-13 08:01N 01°10' E 103°31'3 6.3
2017-Oct-13 07:29N 01°10' E 103°28'4 8.2
2017-Oct-13 06:59N 01°12' E 103°24'5 9.6
2017-Oct-13 06:28N 01°15' E 103°21'  
Track history (hours):
 
Tides and Currents Weather Stations Pressure Air Temp Water Temp Dewpoint Dewpoint Depression Visibility Wind Speed Wind Dir Waves Ship Positions

British Gannet

Last reported at 2017-Oct-18 02:14 UTC. Time now 2017-Oct-20 16:22 UTC.
Position N 01°11' E 103°41'.

Length 252 m; draft 8.5 m.

Type: Tanker. MMSI: 232150000.

Date/timePositionNaut miles runAvg speedWind from/ knotsBaromVisibWave heightAir tempDewpointWater temp
2017-Oct-18 02:14N 01°11' E 103°41'6 2.9
2017-Oct-18 00:04N 01°11' E 103°47'1 4.4
2017-Oct-17 23:45N 01°12' E 103°49'1 3.3
2017-Oct-17 23:29N 01°12' E 103°48'2 3.2
2017-Oct-17 22:56N 01°14' E 103°47'0 1.0
2017-Oct-17 22:30N 01°14' E 103°47'18 2.9
2017-Oct-17 16:07N 01°14' E 103°28'214.0
2017-Oct-17 15:59N 01°13' E 103°30'712.3
2017-Oct-17 15:25N 01°12' E 103°37'3 7.2
2017-Oct-17 14:59N 01°11' E 103°40'1 2.9
2017-Oct-17 14:30N 01°11' E 103°41'3 6.6
2017-Oct-17 13:59N 01°09' E 103°44'511.2
2017-Oct-17 13:30N 01°12' E 103°49'3 2.2
2017-Oct-17 12:21N 01°14' E 103°47'0 0.0
2017-Oct-17 11:57N 01°14' E 103°47'0 0.0
2017-Oct-17 11:24N 01°14' E 103°47'0 0.0
2017-Oct-17 10:57N 01°14' E 103°47'0 0.0
2017-Oct-17 10:22N 01°14' E 103°47'0 0.0
2017-Oct-17 09:57N 01°14' E 103°47'0 0.0
2017-Oct-17 09:06N 01°14' E 103°47'0 0.0
2017-Oct-17 08:51N 01°14' E 103°47'0 0.0
2017-Oct-17 08:27N 01°14' E 103°47'0 0.0
2017-Oct-17 07:57N 01°14' E 103°47'0 0.0
2017-Oct-17 07:18N 01°14' E 103°47'0 0.0
2017-Oct-17 06:54N 01°14' E 103°47'0 0.0
2017-Oct-17 06:30N 01°14' E 103°47'0 0.0
2017-Oct-17 05:57N 01°14' E 103°47'0 0.0
2017-Oct-17 05:27N 01°14' E 103°47'0 0.0
2017-Oct-17 04:54N 01°14' E 103°47'0 0.0
2017-Oct-17 04:30N 01°14' E 103°47'0 0.0
2017-Oct-17 03:51N 01°14' E 103°47'0 0.0
2017-Oct-17 03:09N 01°14' E 103°47'0 0.0
2017-Oct-17 02:57N 01°14' E 103°47'0 0.0
2017-Oct-17 02:27N 01°14' E 103°47'0 0.0
2017-Oct-17 01:57N 01°14' E 103°47'0 0.0
2017-Oct-17 01:27N 01°14' E 103°47'0 0.0
2017-Oct-17 00:42N 01°14' E 103°47'0 0.0
2017-Oct-17 00:30N 01°14' E 103°47'0 0.0
2017-Oct-16 23:56N 01°14' E 103°47'0 0.0
2017-Oct-16 23:26N 01°14' E 103°47'0 0.0
2017-Oct-16 22:50N 01°14' E 103°47'0 0.0
2017-Oct-16 22:17N 01°14' E 103°47'0 0.0
2017-Oct-16 21:44N 01°14' E 103°47'0 0.0
2017-Oct-16 21:20N 01°14' E 103°47'0 0.0
2017-Oct-16 20:47N 01°14' E 103°47'0 0.0
2017-Oct-16 20:26N 01°14' E 103°47'0 0.0
2017-Oct-16 19:47N 01°14' E 103°47'0 0.0
2017-Oct-16 19:14N 01°14' E 103°47'0 0.0
2017-Oct-16 18:53N 01°14' E 103°47'0 0.0
2017-Oct-16 18:20N 01°14' E 103°47'0 0.0
2017-Oct-16 17:56N 01°14' E 103°47'0 0.0
2017-Oct-16 17:20N 01°14' E 103°47'0 0.0
2017-Oct-16 16:50N 01°14' E 103°47'0 0.0
2017-Oct-16 16:26N 01°14' E 103°47'0 0.0
2017-Oct-16 15:56N 01°14' E 103°47'0 0.0
2017-Oct-16 13:59N 01°14' E 103°47'0 0.0
2017-Oct-16 13:29N 01°14' E 103°47'0 0.0
2017-Oct-16 12:56N 01°14' E 103°47'0 0.0
2017-Oct-16 12:26N 01°14' E 103°47'0 0.0
2017-Oct-16 11:59N 01°14' E 103°47'0 0.0
2017-Oct-16 11:29N 01°14' E 103°47'0 0.0
2017-Oct-16 10:56N 01°14' E 103°47'0 0.0
2017-Oct-16 10:26N 01°14' E 103°47'0 0.0
2017-Oct-16 10:00N 01°14' E 103°47'0 0.0
2017-Oct-16 09:26N 01°14' E 103°47'0 0.0
2017-Oct-16 08:53N 01°14' E 103°47'0 0.1
2017-Oct-16 08:26N 01°14' E 103°47'0 0.1
2017-Oct-16 07:59N 01°14' E 103°47'0 0.0
2017-Oct-16 07:29N 01°14' E 103°47'0 0.0
2017-Oct-16 06:56N 01°14' E 103°47'0 0.0
2017-Oct-16 06:29N 01°14' E 103°47'0 0.0
2017-Oct-16 05:53N 01°14' E 103°47'0 0.0
2017-Oct-16 05:29N 01°14' E 103°47'0 0.0
2017-Oct-16 04:56N 01°14' E 103°47'0 0.0
2017-Oct-16 04:26N 01°14' E 103°47'0 0.0
2017-Oct-16 03:59N 01°14' E 103°47'0 0.0
2017-Oct-16 03:23N 01°14' E 103°47'0 0.0
2017-Oct-16 02:59N 01°14' E 103°47'0 0.0
2017-Oct-16 02:29N 01°14' E 103°47'0 0.0
2017-Oct-16 01:59N 01°14' E 103°47'0 0.0
2017-Oct-16 01:26N 01°14' E 103°47'0 0.0
2017-Oct-16 00:56N 01°14' E 103°47'0 0.0
2017-Oct-16 00:26N 01°14' E 103°47'0 0.0
2017-Oct-15 23:56N 01°14' E 103°47'0 0.0
2017-Oct-15 22:53N 01°14' E 103°47'0 0.0
2017-Oct-15 22:20N 01°14' E 103°47'0 0.0
2017-Oct-15 21:59N 01°14' E 103°47'0 0.0
2017-Oct-15 21:26N 01°14' E 103°47'0 0.0
2017-Oct-15 20:56N 01°14' E 103°47'0 0.0
2017-Oct-15 20:29N 01°14' E 103°47'0 0.0
2017-Oct-15 19:59N 01°14' E 103°47'0 0.0
2017-Oct-15 19:29N 01°14' E 103°47'0 0.0
2017-Oct-15 18:59N 01°14' E 103°47'0 0.0
2017-Oct-15 18:08N 01°14' E 103°47'0 0.0
2017-Oct-15 17:44N 01°14' E 103°47'0 0.0
2017-Oct-15 17:26N 01°14' E 103°47'0 0.0
2017-Oct-15 16:59N 01°14' E 103°47'0 0.0
2017-Oct-15 15:49N 01°14' E 103°47'0 0.0
2017-Oct-15 15:16N 01°14' E 103°47'0 0.0
2017-Oct-15 13:37N 01°14' E 103°47'0 0.0
2017-Oct-15 13:16N 01°14' E 103°47'0 0.0
2017-Oct-15 12:37N 01°14' E 103°47'0 0.0
2017-Oct-15 12:22N 01°14' E 103°47'0 0.0
2017-Oct-15 10:55N 01°14' E 103°47'0 0.0
2017-Oct-15 09:44N 01°14' E 103°47'0 0.0
2017-Oct-15 08:31N 01°14' E 103°47'0 0.0
2017-Oct-15 08:28N 01°14' E 103°47'0 0.1
2017-Oct-15 07:55N 01°14' E 103°47'0 0.1
2017-Oct-15 07:28N 01°14' E 103°47'0 0.0
2017-Oct-15 06:37N 01°14' E 103°47'0 0.0
2017-Oct-15 06:25N 01°14' E 103°47'0 0.0
2017-Oct-15 05:55N 01°14' E 103°47'0 0.0
2017-Oct-15 05:28N 01°14' E 103°47'0 0.0
2017-Oct-15 04:58N 01°14' E 103°47'0 0.0
2017-Oct-15 04:25N 01°14' E 103°47'0 0.0
2017-Oct-15 03:43N 01°14' E 103°47'0 0.0
2017-Oct-15 03:28N 01°14' E 103°47'0 0.0
2017-Oct-15 02:46N 01°14' E 103°47'0 0.0
2017-Oct-15 02:16N 01°14' E 103°47'0 0.0
2017-Oct-15 01:55N 01°14' E 103°47'0 0.0
2017-Oct-15 01:26N 01°14' E 103°47'0 0.0
2017-Oct-15 00:53N 01°14' E 103°47'0 0.0
2017-Oct-15 00:19N 01°14' E 103°47'0 0.0
2017-Oct-14 23:19N 01°14' E 103°47'0 0.0
2017-Oct-14 22:07N 01°14' E 103°47'0 0.0
2017-Oct-14 21:40N 01°14' E 103°47'0 0.0
2017-Oct-14 21:22N 01°14' E 103°47'0 0.0
2017-Oct-14 20:55N 01°14' E 103°47'0 0.0
2017-Oct-14 20:10N 01°14' E 103°47'0 0.0
2017-Oct-14 19:49N 01°14' E 103°47'0 0.0
2017-Oct-14 19:25N 01°14' E 103°47'0 0.0
2017-Oct-14 18:49N 01°14' E 103°47'0 0.2
2017-Oct-14 18:25N 01°14' E 103°47'0 0.1
2017-Oct-14 17:46N 01°14' E 103°47'0 0.0
2017-Oct-14 17:16N 01°14' E 103°47'0 0.0
2017-Oct-14 16:52N 01°14' E 103°47'0 0.0
2017-Oct-14 15:58N 01°14' E 103°47'0 0.0
2017-Oct-14 13:52N 01°14' E 103°47'0 0.0
2017-Oct-14 13:19N 01°14' E 103°47'0 0.0
2017-Oct-14 12:55N 01°14' E 103°47'0 0.0
2017-Oct-14 11:19N 01°14' E 103°47'0 0.0
2017-Oct-14 10:16N 01°14' E 103°47'0 0.0
2017-Oct-14 09:49N 01°14' E 103°47'0 0.0
2017-Oct-14 09:25N 01°14' E 103°47'0 0.1
2017-Oct-14 08:55N 01°14' E 103°47'0 0.0
2017-Oct-14 08:25N 01°14' E 103°47'0 0.1
2017-Oct-14 07:49N 01°14' E 103°47'0 0.2
2017-Oct-14 07:27N 01°14' E 103°47'0 0.3
2017-Oct-14 06:59N 01°14' E 103°47'0 0.4
2017-Oct-14 06:30N 01°14' E 103°47'0 0.5
2017-Oct-14 05:58N 01°14' E 103°47'0 0.5
2017-Oct-14 05:30N 01°14' E 103°47'1 1.1
2017-Oct-14 04:58N 01°14' E 103°46'1 1.2
2017-Oct-14 04:29N 01°15' E 103°46'1 1.5
2017-Oct-14 04:00N 01°15' E 103°45'1 1.7
2017-Oct-14 03:30N 01°15' E 103°44'3 3.6
2017-Oct-14 02:45N 01°14' E 103°47'0 0.0
2017-Oct-14 02:30N 01°14' E 103°47'0 0.0
2017-Oct-14 01:57N 01°14' E 103°47'0 0.0
2017-Oct-14 01:30N 01°14' E 103°47'0 0.0
2017-Oct-14 00:48N 01°14' E 103°47'0 0.0
2017-Oct-14 00:21N 01°14' E 103°47'0 0.0
2017-Oct-14 00:00N 01°14' E 103°47'0 0.0
2017-Oct-13 23:27N 01°14' E 103°47'0 0.0
2017-Oct-13 23:00N 01°14' E 103°47'0 0.0
2017-Oct-13 22:30N 01°14' E 103°47'0 0.0
2017-Oct-13 21:57N 01°14' E 103°47'0 0.0
2017-Oct-13 21:24N 01°14' E 103°47'0 0.0
2017-Oct-13 21:00N 01°14' E 103°47'0 0.0
2017-Oct-13 20:30N 01°14' E 103°47'0 0.0
2017-Oct-13 20:00N 01°14' E 103°47'0 0.0
2017-Oct-13 19:31N 01°14' E 103°47'0 0.5
2017-Oct-13 19:01N 01°14' E 103°47'2 4.3
2017-Oct-13 18:30N 01°15' E 103°45'5 9.1
2017-Oct-13 18:00N 01°13' E 103°41'1 1.7
2017-Oct-13 17:30N 01°12' E 103°41'0 0.2
2017-Oct-13 16:59N 01°12' E 103°41'0 0.1
2017-Oct-13 16:29N 01°12' E 103°41'0 0.1
2017-Oct-13 15:56N 01°12' E 103°41'0 0.0
2017-Oct-13 15:29N 01°12' E 103°41'0 0.1
2017-Oct-13 14:53N 01°12' E 103°41'0 0.0
2017-Oct-13 14:17N 01°12' E 103°41'0 0.0
2017-Oct-13 13:59N 01°12' E 103°41'0 0.0
2017-Oct-13 13:26N 01°12' E 103°41'0 0.0
2017-Oct-13 12:59N 01°12' E 103°41'0 0.1
2017-Oct-13 12:29N 01°12' E 103°41'0 0.1
2017-Oct-13 11:53N 01°12' E 103°41'0 0.0
2017-Oct-13 11:26N 01°12' E 103°41'0 0.0
2017-Oct-13 10:59N 01°12' E 103°41'0 0.2
2017-Oct-13 10:29N 01°12' E 103°41'1 1.8
2017-Oct-13 10:01N 01°12' E 103°41'3 5.4
2017-Oct-13 09:30N 01°12' E 103°38'3 5.2
2017-Oct-13 09:00N 01°12' E 103°35'2 4.9
2017-Oct-13 08:30N 01°10' E 103°33'2 4.2
2017-Oct-13 08:01N 01°10' E 103°31'3 6.3
2017-Oct-13 07:29N 01°10' E 103°28'4 8.2
2017-Oct-13 06:59N 01°12' E 103°24'5 9.6
2017-Oct-13 06:28N 01°15' E 103°21'  

Dump ship's entire track history